Time;durP1;ratioP1;P1;durP2;ratioP2;P2;SDS_P1;SDS_P2;PMS_P1;PMS_P2;Temp;Humidity;BMP_temperature;BMP_pressure;BME280_temperature;BME280_humidity;BME280_pressure;Samples;Min_cycle;Max_cycle;Signal;HPM_P1;HPM_P2
2021/11/27 00:00:56;;;;;;;20.15;11.05;;;;;;;3.24;76.79;99322.75;5024278;28;20025;-83
2021/11/27 00:03:22;;;;;;;20.73;10.82;;;;;;;3.25;76.58;99319.84;5023438;28;20022;-83
2021/11/27 00:05:48;;;;;;;26.30;10.35;;;;;;;3.24;76.94;99312.16;5021729;28;20640;-84
2021/11/27 00:08:16;;;;;;;23.60;10.02;;;;;;;3.25;77.15;99317.22;5021075;28;20119;-83
2021/11/27 00:10:45;;;;;;;19.38;10.05;;;;;;;3.23;77.00;99307.88;5026875;28;20024;-83
2021/11/27 00:13:12;;;;;;;22.23;10.95;;;;;;;3.21;77.33;99300.16;5014348;28;20022;-83
2021/11/27 00:15:39;;;;;;;25.42;10.60;;;;;;;3.21;77.49;99294.88;5036753;28;20025;-83
2021/11/27 00:18:06;;;;;;;24.35;9.90;;;;;;;3.13;77.39;99297.91;5023346;28;20041;-83
2021/11/27 00:20:41;;;;;;;23.05;10.60;;;;;;;3.12;77.55;99291.00;5023463;28;20383;-83
2021/11/27 00:23:08;;;;;;;24.50;10.93;;;;;;;3.13;77.51;99291.81;5013374;28;20032;-83
2021/11/27 00:25:34;;;;;;;19.55;10.48;;;;;;;3.16;77.62;99291.34;5023282;28;20137;-83
2021/11/27 00:28:00;;;;;;;21.85;10.35;;;;;;;3.14;77.69;99282.84;5036688;28;20087;-83
2021/11/27 00:30:28;;;;;;;23.25;10.85;;;;;;;3.11;77.73;99283.31;5021816;28;20057;-83
2021/11/27 00:32:54;;;;;;;24.23;10.02;;;;;;;3.06;77.75;99283.22;5019312;28;20045;-83
2021/11/27 00:35:20;;;;;;;21.63;9.88;;;;;;;3.01;78.43;99283.91;5024052;28;20102;-82
2021/11/27 00:37:47;;;;;;;21.80;11.27;;;;;;;3.00;78.71;99287.56;5023895;28;20216;-83
2021/11/27 00:40:13;;;;;;;22.63;11.90;;;;;;;2.94;78.77;99299.91;5021477;28;20091;-82
2021/11/27 00:42:39;;;;;;;26.50;12.43;;;;;;;2.92;78.73;99295.91;5025797;28;20025;-83
2021/11/27 00:45:11;;;;;;;23.00;11.10;;;;;;;2.82;79.58;99300.97;5023971;28;20030;-83
2021/11/27 00:47:38;;;;;;;22.13;10.90;;;;;;;2.82;79.41;99306.25;5023443;28;20029;-84
2021/11/27 00:50:04;;;;;;;20.63;10.45;;;;;;;2.76;79.83;99292.13;5033525;28;20092;-83
2021/11/27 00:52:30;;;;;;;27.75;12.30;;;;;;;2.78;79.59;99286.59;5026215;28;20045;-83
2021/11/27 00:54:56;;;;;;;22.67;11.70;;;;;;;2.79;79.71;99293.50;5026089;28;20025;-83
2021/11/27 00:57:21;;;;;;;25.73;11.35;;;;;;;2.83;79.47;99286.69;5027007;28;20024;-83
2021/11/27 00:59:47;;;;;;;23.05;11.25;;;;;;;2.85;79.42;99292.56;5026549;28;20033;-83
2021/11/27 01:02:13;;;;;;;25.83;12.13;;;;;;;2.81;79.77;99284.28;5020991;28;20057;-84
2021/11/27 01:04:38;;;;;;;31.25;12.18;;;;;;;2.79;79.95;99290.84;5019473;28;20543;-83
2021/11/27 01:07:05;;;;;;;28.83;11.57;;;;;;;2.80;80.18;99290.63;5027952;28;20083;-83
2021/11/27 01:09:30;;;;;;;36.85;13.98;;;;;;;2.78;80.25;99291.88;5022602;28;20017;-83
2021/11/27 01:11:56;;;;;;;24.75;12.38;;;;;;;2.79;80.30;99290.84;5025608;28;20036;-83
2021/11/27 01:14:25;;;;;;;34.65;13.45;;;;;;;2.77;81.33;99293.72;5017181;28;20512;-83
2021/11/27 01:16:54;;;;;;;34.08;13.27;;;;;;;2.72;81.79;99302.38;5035042;28;20554;-83
2021/11/27 01:19:23;;;;;;;26.10;11.93;;;;;;;2.63;82.92;99310.88;5019269;28;20029;-83
2021/11/27 01:21:53;;;;;;;23.60;11.52;;;;;;;2.40;84.49;99304.56;5025784;28;20066;-83
2021/11/27 01:24:19;;;;;;;23.40;11.85;;;;;;;2.38;84.62;99296.06;5039128;28;20630;-83
2021/11/27 01:26:46;;;;;;;25.80;12.45;;;;;;;2.40;84.43;99304.56;5025116;28;20369;-83
2021/11/27 01:29:11;;;;;;;22.98;11.73;;;;;;;2.33;85.04;99303.03;5022048;28;20025;-83
2021/11/27 01:31:37;;;;;;;25.75;12.68;;;;;;;2.39;84.70;99299.50;5029903;28;20030;-84
2021/11/27 01:34:05;;;;;;;27.58;11.90;;;;;;;2.44;83.96;99294.31;5029331;28;20021;-83
2021/11/27 01:36:31;;;;;;;28.65;12.45;;;;;;;2.51;83.73;99297.66;5029226;28;20029;-83
2021/11/27 01:38:56;;;;;;;24.85;12.00;;;;;;;2.57;83.51;99299.38;5027400;28;20051;-83
2021/11/27 01:41:22;;;;;;;33.20;13.25;;;;;;;2.57;83.43;99291.47;5028469;28;20655;-83
2021/11/27 01:43:49;;;;;;;28.48;12.48;;;;;;;2.54;83.52;99299.84;5027085;28;20033;-84
2021/11/27 01:46:15;;;;;;;27.05;12.48;;;;;;;2.55;83.12;99290.88;5025261;28;20018;-83
2021/11/27 01:48:41;;;;;;;26.73;11.88;;;;;;;2.58;82.96;99289.63;5029822;28;20048;-83
2021/11/27 01:51:18;;;;;;;24.45;11.70;;;;;;;2.63;82.72;99287.88;5030860;28;20075;-83
2021/11/27 01:53:46;;;;;;;28.38;13.52;;;;;;;2.57;83.12;99294.09;5030361;28;20052;-83
2021/11/27 01:56:16;;;;;;;27.75;12.18;;;;;;;2.57;83.00;99286.16;5030613;28;20049;-84
2021/11/27 01:58:42;;;;;;;27.35;12.88;;;;;;;2.60;82.75;99292.81;5027800;28;20082;-83
2021/11/27 02:01:12;;;;;;;32.08;13.07;;;;;;;2.61;82.87;99289.94;5020013;28;20025;-83
2021/11/27 02:03:39;;;;;;;39.13;13.85;;;;;;;2.66;82.53;99292.69;5019316;28;20118;-84
2021/11/27 02:06:06;;;;;;;22.75;12.27;;;;;;;2.65;82.68;99280.50;5029893;28;20025;-84
2021/11/27 02:08:32;;;;;;;29.17;14.18;;;;;;;2.64;82.79;99278.91;5028821;28;20017;-83
2021/11/27 02:10:58;;;;;;;26.13;12.93;;;;;;;2.64;82.73;99278.09;5025348;28;20086;-84
2021/11/27 02:13:24;;;;;;;28.25;13.82;;;;;;;2.65;83.04;99274.41;5028195;28;20164;-84
2021/11/27 02:15:50;;;;;;;26.92;14.65;;;;;;;2.66;82.92;99276.03;5026619;28;20480;-84
2021/11/27 02:18:15;;;;;;;27.73;13.93;;;;;;;2.65;83.08;99272.56;5029185;28;21037;-83
2021/11/27 02:20:53;;;;;;;31.15;13.10;;;;;;;2.60;83.40;99264.53;5027766;28;20045;-83
2021/11/27 02:23:18;;;;;;;28.08;12.75;;;;;;;2.61;83.32;99268.00;5029769;28;20037;-84
2021/11/27 02:25:44;;;;;;;29.70;13.35;;;;;;;2.55;83.42;99263.63;5029136;28;20040;-84
2021/11/27 02:28:11;;;;;;;28.40;13.35;;;;;;;2.43;84.35;99258.34;5030484;28;20045;-84
2021/11/27 02:30:37;;;;;;;32.40;13.85;;;;;;;2.41;84.14;99263.88;5027515;28;20049;-83
2021/11/27 02:33:02;;;;;;;27.70;13.32;;;;;;;2.25;85.05;99267.22;5028375;28;20106;-83
2021/11/27 02:35:28;;;;;;;28.85;12.73;;;;;;;2.25;85.36;99261.91;5022501;28;20049;-83
2021/11/27 02:37:54;;;;;;;27.20;12.50;;;;;;;2.20;85.27;99258.38;5019782;28;20029;-84
2021/11/27 02:40:20;;;;;;;34.28;13.40;;;;;;;2.23;85.43;99264.00;5024679;28;20035;-83
2021/11/27 02:42:46;;;;;;;27.70;12.07;;;;;;;2.21;84.92;99262.63;5020729;28;20060;-83
2021/11/27 02:45:12;;;;;;;25.88;11.98;;;;;;;2.08;85.57;99259.16;5024485;28;20361;-84
2021/11/27 02:47:39;;;;;;;27.55;12.85;;;;;;;2.09;85.56;99255.47;5026835;28;20028;-84
2021/11/27 02:50:06;;;;;;;27.88;14.27;;;;;;;1.98;86.21;99258.94;5025366;28;21431;-84
2021/11/27 02:52:34;;;;;;;28.65;13.57;;;;;;;2.06;86.00;99253.31;5024790;28;20033;-83
2021/11/27 02:55:00;;;;;;;27.80;12.88;;;;;;;2.10;85.38;99251.81;5024464;28;20573;-83
2021/11/27 02:57:29;;;;;;;25.90;13.05;;;;;;;2.14;85.34;99246.84;5039745;28;20060;-84
2021/11/27 02:59:55;;;;;;;32.10;13.48;;;;;;;2.15;85.24;99243.19;5023429;28;20373;-83
2021/11/27 03:02:20;;;;;;;27.73;14.20;;;;;;;2.15;85.00;99237.91;5026672;28;20026;-83
2021/11/27 03:04:49;;;;;;;26.25;12.90;;;;;;;2.24;84.59;99241.81;5027888;28;20108;-83
2021/11/27 03:07:15;;;;;;;32.45;14.55;;;;;;;2.24;84.80;99246.28;5028630;28;20029;-83
2021/11/27 03:09:41;;;;;;;33.28;13.52;;;;;;;2.24;85.25;99244.47;5024367;28;20084;-83
2021/11/27 03:12:07;;;;;;;39.10;15.95;;;;;;;2.25;84.85;99248.72;5025219;28;20048;-84
2021/11/27 03:14:32;;;;;;;32.67;13.90;;;;;;;2.26;84.86;99238.94;5027292;28;20048;-83
2021/11/27 03:16:59;;;;;;;32.30;13.13;;;;;;;2.27;84.90;99236.06;5023317;28;20022;-83
2021/11/27 03:19:25;;;;;;;28.85;13.13;;;;;;;2.31;84.90;99233.75;5026512;28;20018;-84
2021/11/27 03:21:51;;;;;;;30.60;14.25;;;;;;;2.37;84.57;99235.50;5026440;28;20113;-84
2021/11/27 03:24:17;;;;;;;32.83;14.38;;;;;;;2.40;84.21;99237.69;5022652;28;20057;-84
2021/11/27 03:26:43;;;;;;;31.90;15.05;;;;;;;2.41;84.30;99236.63;5026303;28;20076;-84
2021/11/27 03:29:09;;;;;;;33.30;15.48;;;;;;;2.44;84.56;99236.16;5027342;28;20462;-83
2021/11/27 03:31:34;;;;;;;41.08;15.48;;;;;;;2.43;84.80;99243.28;5026580;28;20488;-83
2021/11/27 03:34:00;;;;;;;30.88;13.85;;;;;;;2.45;84.85;99251.00;5036115;28;20036;-83
2021/11/27 03:36:26;;;;;;;31.08;14.40;;;;;;;2.44;85.09;99246.75;5023790;28;20109;-83
2021/11/27 03:38:51;;;;;;;34.40;14.95;;;;;;;2.46;84.75;99255.25;5026565;28;20048;-84
2021/11/27 03:41:17;;;;;;;29.38;14.25;;;;;;;2.50;84.63;99250.28;5025886;28;20116;-84
2021/11/27 03:43:44;;;;;;;37.28;14.63;;;;;;;2.51;84.35;99251.91;5022488;28;20451;-83
2021/11/27 03:46:10;;;;;;;33.67;16.02;;;;;;;2.46;84.68;99249.97;5028361;28;20025;-84
2021/11/27 03:48:40;;;;;;;32.03;14.55;;;;;;;2.51;84.55;99247.41;5021219;28;20144;-83
2021/11/27 03:51:11;;;;;;;34.00;15.65;;;;;;;2.53;84.10;99250.66;5027295;28;20506;-84
2021/11/27 03:53:39;;;;;;;37.38;15.77;;;;;;;2.54;84.37;99246.16;5022555;28;20443;-84
2021/11/27 03:56:08;;;;;;;34.30;14.65;;;;;;;2.50;84.79;99251.09;5027541;28;20029;-83
2021/11/27 03:58:34;;;;;;;38.45;14.98;;;;;;;2.53;84.45;99247.22;5019888;28;20125;-84
2021/11/27 04:01:01;;;;;;;37.03;14.98;;;;;;;2.53;84.68;99253.31;5020321;28;20117;-83
2021/11/27 04:03:27;;;;;;;36.17;15.23;;;;;;;2.52;84.65;99251.69;5024232;28;20025;-84
2021/11/27 04:05:55;;;;;;;33.05;14.45;;;;;;;2.54;84.64;99251.47;5031156;28;20045;-83
2021/11/27 04:08:21;;;;;;;35.90;15.52;;;;;;;2.56;84.34;99254.66;5024160;28;20475;-83
2021/11/27 04:10:49;;;;;;;34.38;14.75;;;;;;;2.56;84.07;99255.47;5024102;28;20091;-84
2021/11/27 04:13:15;;;;;;;37.47;14.98;;;;;;;2.52;84.14;99248.25;5021407;28;20905;-83
2021/11/27 04:15:41;;;;;;;34.20;14.55;;;;;;;2.52;84.27;99251.69;5027362;28;20022;-83
2021/11/27 04:18:07;;;;;;;37.67;15.30;;;;;;;2.51;84.32;99250.06;5023718;28;20033;-83
2021/11/27 04:20:34;;;;;;;34.65;15.13;;;;;;;2.53;84.23;99245.38;5025032;28;20031;-84
2021/11/27 04:23:00;;;;;;;33.85;15.07;;;;;;;2.55;83.80;99243.28;5022528;28;20022;-83
2021/11/27 04:25:26;;;;;;;34.35;16.23;;;;;;;2.51;84.12;99244.78;5024271;28;20037;-83
2021/11/27 04:27:51;;;;;;;31.58;14.80;;;;;;;2.50;83.83;99243.16;5023139;28;20062;-83
2021/11/27 04:30:25;;;;;;;32.92;14.10;;;;;;;2.48;83.80;99234.66;5026663;28;20029;-84
2021/11/27 04:32:52;;;;;;;39.10;15.60;;;;;;;2.47;83.46;99241.00;5024667;28;20025;-83
2021/11/27 04:35:18;;;;;;;30.52;14.05;;;;;;;2.39;84.02;99236.88;5025548;28;20630;-84
2021/11/27 04:37:45;;;;;;;32.95;14.63;;;;;;;2.34;83.93;99235.97;5023264;28;20053;-84
2021/11/27 04:40:13;;;;;;;39.10;16.38;;;;;;;2.36;83.83;99242.63;5027918;28;20025;-83
2021/11/27 04:42:38;;;;;;;37.80;16.88;;;;;;;2.28;84.43;99242.16;5015276;28;20511;-83
2021/11/27 04:45:07;;;;;;;33.50;15.25;;;;;;;2.22;84.54;99254.47;5025067;28;20033;-84
2021/11/27 04:47:32;;;;;;;33.97;15.10;;;;;;;2.23;84.71;99260.53;5016156;28;20029;-83
2021/11/27 04:49:58;;;;;;;38.65;18.00;;;;;;;2.19;85.01;99260.22;5023195;28;20026;-83
2021/11/27 04:52:24;;;;;;;37.30;15.55;;;;;;;2.20;84.90;99266.28;5021146;28;20030;-83
2021/11/27 04:54:50;;;;;;;36.08;16.33;;;;;;;2.20;85.26;99263.66;5027768;28;20447;-82
2021/11/27 04:57:16;;;;;;;34.28;15.07;;;;;;;2.20;84.83;99261.81;5027168;28;20264;-83
2021/11/27 04:59:42;;;;;;;33.33;15.27;;;;;;;2.20;84.61;99261.00;5027664;28;20021;-83
2021/11/27 05:02:07;;;;;;;32.83;16.08;;;;;;;2.11;84.66;99263.19;5020999;28;20033;-84
2021/11/27 05:04:33;;;;;;;36.45;15.43;;;;;;;2.03;84.65;99259.03;5025174;28;20105;-84
2021/11/27 05:06:58;;;;;;;34.63;15.77;;;;;;;1.91;85.32;99266.13;5030462;28;20048;-84
2021/11/27 05:09:24;;;;;;;34.85;16.65;;;;;;;1.89;85.34;99262.94;5027425;28;20026;-83
2021/11/27 05:11:49;;;;;;;36.92;15.07;;;;;;;1.85;85.70;99261.78;5030188;28;20049;-83
2021/11/27 05:14:15;;;;;;;42.22;17.42;;;;;;;1.70;86.13;99258.75;5031570;28;20025;-83
2021/11/27 05:16:41;;;;;;;34.30;15.80;;;;;;;1.59;85.99;99257.69;5032392;28;20379;-83
2021/11/27 05:19:06;;;;;;;38.13;16.95;;;;;;;1.50;86.00;99251.13;5031281;28;20075;-83
2021/11/27 05:21:32;;;;;;;38.95;16.80;;;;;;;1.44;86.09;99260.78;5030920;28;20021;-83
2021/11/27 05:23:57;;;;;;;32.30;15.32;;;;;;;1.38;86.27;99252.94;5028913;28;20057;-82
2021/11/27 05:26:23;;;;;;;33.00;14.93;;;;;;;1.32;86.24;99264.38;5031875;28;20032;-82
2021/11/27 05:28:49;;;;;;;49.30;16.90;;;;;;;1.20;86.34;99261.69;5020043;28;20040;-83
2021/11/27 05:31:16;;;;;;;39.70;16.98;;;;;;;1.14;86.42;99259.97;5030323;28;20480;-83
2021/11/27 05:36:16;;;;;;;35.53;15.20;;;;;;;1.02;87.25;99269.63;5032475;28;20017;-84
2021/11/27 05:38:44;;;;;;;43.25;19.63;;;;;;;0.96;87.12;99268.69;5045128;28;20572;-84
2021/11/27 05:41:10;;;;;;;42.20;18.67;;;;;;;0.85;87.48;99278.16;5029152;28;20379;-83
2021/11/27 05:43:36;;;;;;;48.60;19.20;;;;;;;0.83;88.23;99282.84;5029968;28;20164;-83
2021/11/27 05:46:01;;;;;;;42.75;17.23;;;;;;;0.80;88.09;99272.72;5029766;28;20057;-83
2021/11/27 05:48:27;;;;;;;45.53;18.58;;;;;;;0.71;88.72;99271.41;5029631;28;20111;-83
2021/11/27 05:50:53;;;;;;;39.58;16.95;;;;;;;0.67;88.62;99272.88;5026138;28;20184;-83
2021/11/27 05:53:19;;;;;;;40.67;17.35;;;;;;;0.66;88.56;99281.81;5025844;28;20017;-83
2021/11/27 05:55:49;;;;;;;44.25;17.63;;;;;;;0.56;88.50;99284.16;5029277;28;20041;-83
2021/11/27 05:58:17;;;;;;;48.30;18.67;;;;;;;0.41;88.70;99284.50;5024497;28;20082;-83
2021/11/27 06:00:44;;;;;;;45.10;17.73;;;;;;;0.27;88.22;99277.75;5024071;28;20057;-83
2021/11/27 06:03:10;;;;;;;45.38;18.48;;;;;;;0.16;89.31;99281.06;5042561;28;20435;-83
2021/11/27 06:05:35;;;;;;;49.55;18.50;;;;;;;0.10;89.54;99276.69;5029719;28;20037;-83
2021/11/27 06:08:01;;;;;;;49.85;18.63;;;;;;;0.20;89.24;99277.00;5026027;28;20053;-83
2021/11/27 06:10:27;;;;;;;50.97;19.75;;;;;;;0.09;89.20;99281.13;5023818;28;20032;-84
2021/11/27 06:12:52;;;;;;;48.67;19.65;;;;;;;-0.06;89.76;99292.00;5016703;28;20026;-83
2021/11/27 06:15:18;;;;;;;45.60;18.08;;;;;;;-0.18;89.91;99290.25;5019680;28;20037;-83
2021/11/27 06:17:43;;;;;;;57.55;19.42;;;;;;;-0.31;91.08;99302.50;5023429;28;20418;-83
2021/11/27 06:20:10;;;;;;;51.13;19.95;;;;;;;-0.48;92.22;99298.75;5028052;28;20065;-83
2021/11/27 06:22:35;;;;;;;49.10;18.27;;;;;;;-0.47;92.33;99308.28;5029482;28;20025;-83
2021/11/27 06:25:01;;;;;;;49.92;19.05;;;;;;;-0.55;92.47;99295.34;5029884;28;20113;-83
2021/11/27 06:27:26;;;;;;;44.13;18.55;;;;;;;-0.65;92.70;99305.53;5030323;28;20022;-83
2021/11/27 06:29:52;;;;;;;53.72;19.48;;;;;;;-0.71;93.33;99301.13;5026434;28;20017;-83
2021/11/27 06:32:23;;;;;;;49.92;20.40;;;;;;;-0.72;93.51;99304.75;5026522;28;20041;-83
2021/11/27 06:34:51;;;;;;;42.50;18.20;;;;;;;-0.66;93.36;99294.22;5024454;28;20025;-83
2021/11/27 06:37:17;;;;;;;42.90;17.55;;;;;;;-0.47;92.85;99291.69;5026460;28;20025;-84
2021/11/27 06:39:43;;;;;;;62.03;21.15;;;;;;;-0.36;92.06;99299.72;5024000;28;20037;-83
2021/11/27 06:42:09;;;;;;;43.83;18.52;;;;;;;-0.23;91.63;99292.72;5026848;28;20406;-84
2021/11/27 06:44:34;;;;;;;46.78;18.73;;;;;;;-0.17;90.79;99289.25;5021916;28;20040;-83
2021/11/27 06:47:00;;;;;;;51.28;19.65;;;;;;;-0.30;90.87;99308.56;5029828;28;20025;-84
2021/11/27 06:49:26;;;;;;;49.83;20.95;;;;;;;-0.42;91.78;99305.81;5027920;28;20033;-82
2021/11/27 06:51:52;;;;;;;57.83;22.05;;;;;;;-0.45;91.93;99318.59;5037094;28;20384;-82
2021/11/27 06:54:17;;;;;;;60.45;21.15;;;;;;;-0.54;93.12;99317.19;5027081;28;20036;-83
2021/11/27 06:56:43;;;;;;;57.42;23.15;;;;;;;-0.57;93.81;99328.94;5028081;28;20021;-82
2021/11/27 06:59:08;;;;;;;55.05;20.80;;;;;;;-0.58;93.73;99332.59;5027358;28;20583;-82
2021/11/27 07:01:35;;;;;;;51.63;21.83;;;;;;;-0.48;94.05;99337.44;5029314;28;20033;-83
2021/11/27 07:04:00;;;;;;;50.75;21.00;;;;;;;-0.39;93.87;99336.94;5042315;28;20036;-83
2021/11/27 07:06:26;;;;;;;47.72;20.27;;;;;;;-0.30;93.38;99324.38;5025096;28;20435;-83
2021/11/27 07:08:52;;;;;;;55.30;20.90;;;;;;;-0.19;92.98;99325.50;5023203;28;20064;-83
2021/11/27 07:11:17;;;;;;;46.20;19.48;;;;;;;-0.11;92.42;99325.25;5029352;28;20029;-83
2021/11/27 07:13:43;;;;;;;54.28;20.55;;;;;;;-0.07;92.43;99329.88;5025247;28;20033;-83
2021/11/27 07:16:08;;;;;;;50.35;20.70;;;;;;;-0.01;92.08;99334.28;5025245;28;20045;-83
2021/11/27 07:18:34;;;;;;;47.67;20.90;;;;;;;0.05;91.94;99332.63;5022632;28;20531;-83
2021/11/27 07:20:59;;;;;;;48.25;21.75;;;;;;;0.13;91.79;99339.44;5023706;28;20071;-83
2021/11/27 07:23:25;;;;;;;48.45;21.55;;;;;;;0.20;91.14;99348.13;5021147;28;20053;-83
2021/11/27 07:25:50;;;;;;;66.70;24.35;;;;;;;0.21;92.34;99350.53;5029557;28;20053;-83
2021/11/27 07:28:16;;;;;;;63.95;25.38;;;;;;;0.32;92.10;99364.03;5026133;28;20087;-83
2021/11/27 07:30:42;;;;;;;56.97;24.40;;;;;;;0.37;91.95;99361.56;5027864;28;20020;-83
2021/11/27 07:33:07;;;;;;;62.63;24.30;;;;;;;0.44;91.40;99364.94;5029904;28;20105;-83
2021/11/27 07:35:33;;;;;;;53.15;22.42;;;;;;;0.52;91.21;99354.91;5027109;28;20028;-83
2021/11/27 07:37:59;;;;;;;62.42;23.63;;;;;;;0.60;90.47;99361.75;5020174;28;20029;-83
2021/11/27 07:40:25;;;;;;;56.35;20.65;;;;;;;0.72;90.45;99367.94;5028142;28;20117;-83
2021/11/27 07:42:52;;;;;;;53.08;22.75;;;;;;;0.78;90.33;99372.34;5028841;28;20033;-83
2021/11/27 07:45:19;;;;;;;50.13;23.85;;;;;;;0.89;89.61;99366.31;5021207;28;20029;-83
2021/11/27 07:47:45;;;;;;;57.72;23.50;;;;;;;0.98;88.97;99374.78;5023714;28;20041;-82
2021/11/27 07:50:11;;;;;;;57.30;25.45;;;;;;;1.02;88.92;99378.56;5031342;28;20052;-83
2021/11/27 07:52:36;;;;;;;56.10;24.83;;;;;;;1.08;88.78;99384.84;5028453;28;20112;-83
2021/11/27 07:55:02;;;;;;;61.60;27.83;;;;;;;1.17;88.19;99384.31;5020911;28;20369;-83
2021/11/27 07:57:28;;;;;;;68.00;26.73;;;;;;;1.25;87.59;99382.38;5032169;28;20033;-83
2021/11/27 07:59:54;;;;;;;53.25;21.38;;;;;;;1.25;87.77;99385.81;5026950;28;20037;-83
2021/11/27 08:02:19;;;;;;;57.03;23.13;;;;;;;1.33;87.59;99393.47;5025342;28;20024;-83
2021/11/27 08:04:45;;;;;;;50.40;20.58;;;;;;;1.42;87.52;99396.59;5022831;28;20034;-83
2021/11/27 08:07:10;;;;;;;56.40;23.60;;;;;;;1.49;87.08;99392.06;5020597;28;20017;-83
2021/11/27 08:09:36;;;;;;;52.03;21.30;;;;;;;1.59;86.31;99389.69;5021503;28;20288;-83
2021/11/27 08:12:01;;;;;;;50.67;21.65;;;;;;;1.70;86.43;99398.69;5027689;28;20042;-83
2021/11/27 08:14:31;;;;;;;55.20;22.65;;;;;;;1.81;85.95;99393.47;5025754;28;20033;-83
2021/11/27 08:16:59;;;;;;;55.92;20.77;;;;;;;1.86;85.80;99390.16;5023823;28;20117;-83
2021/11/27 08:19:24;;;;;;;49.25;19.52;;;;;;;1.97;85.40;99389.38;5024503;28;20036;-83
2021/11/27 08:21:50;;;;;;;47.67;20.95;;;;;;;2.01;85.27;99382.63;5024613;28;20026;-83
2021/11/27 08:24:15;;;;;;;53.85;21.75;;;;;;;2.01;85.43;99385.28;5021252;28;20021;-83
2021/11/27 08:26:41;;;;;;;52.17;21.80;;;;;;;2.05;85.08;99396.19;5025799;28;20026;-83
2021/11/27 08:29:07;;;;;;;49.53;19.63;;;;;;;2.06;85.21;99392.53;5023823;28;20057;-83
2021/11/27 08:31:32;;;;;;;47.97;21.05;;;;;;;2.06;84.76;99398.59;5023991;28;20029;-84
2021/11/27 08:33:58;;;;;;;44.20;20.10;;;;;;;2.06;84.75;99405.72;5025464;28;20034;-83
2021/11/27 08:36:24;;;;;;;54.55;22.25;;;;;;;2.06;84.42;99409.19;5026511;28;20029;-83
2021/11/27 08:38:49;;;;;;;54.63;22.88;;;;;;;2.02;84.99;99405.38;5026859;28;20033;-83
2021/11/27 08:41:15;;;;;;;54.05;22.08;;;;;;;1.93;85.22;99409.34;5026131;28;20068;-83
2021/11/27 08:43:40;;;;;;;49.03;20.98;;;;;;;1.95;85.79;99411.75;5023941;28;20480;-83
2021/11/27 08:46:07;;;;;;;46.63;19.88;;;;;;;2.04;85.66;99410.44;5020754;28;20042;-83
2021/11/27 08:48:36;;;;;;;51.53;22.23;;;;;;;2.17;85.41;99417.38;5028379;28;21009;-83
2021/11/27 08:51:06;;;;;;;53.53;22.88;;;;;;;2.29;85.48;99405.78;5027867;28;20036;-83
2021/11/27 08:53:32;;;;;;;50.85;21.77;;;;;;;2.37;85.12;99402.81;5018246;28;20124;-83
2021/11/27 08:55:57;;;;;;;41.42;19.50;;;;;;;2.49;85.35;99412.59;5027315;28;20112;-83
2021/11/27 08:58:23;;;;;;;46.53;22.48;;;;;;;2.52;84.70;99410.31;5021379;28;20025;-83
2021/11/27 09:00:48;;;;;;;54.25;20.80;;;;;;;2.57;85.17;99404.34;5023790;28;20482;-83
2021/11/27 09:03:14;;;;;;;48.92;21.35;;;;;;;2.50;84.72;99415.00;5025317;28;20469;-84
2021/11/27 09:05:39;;;;;;;47.85;21.25;;;;;;;2.60;84.78;99404.69;5032468;28;20113;-83
2021/11/27 09:08:05;;;;;;;49.67;19.48;;;;;;;2.66;84.44;99419.63;5024878;28;20025;-83
2021/11/27 09:10:31;;;;;;;46.53;19.60;;;;;;;2.73;84.36;99414.25;5020122;28;20026;-83
2021/11/27 09:12:58;;;;;;;43.17;19.60;;;;;;;2.79;83.94;99413.31;5023820;28;20099;-83
2021/11/27 09:15:24;;;;;;;40.63;17.55;;;;;;;2.83;83.44;99414.47;5024036;28;20097;-83
2021/11/27 09:17:49;;;;;;;46.85;20.02;;;;;;;2.91;83.24;99418.63;5024210;28;20148;-83
2021/11/27 09:20:15;;;;;;;47.00;20.40;;;;;;;2.94;83.35;99418.16;5018544;28;20491;-83
2021/11/27 09:22:40;;;;;;;44.58;18.80;;;;;;;3.06;82.72;99410.22;5026852;28;20049;-83
2021/11/27 09:25:06;;;;;;;40.17;18.45;;;;;;;3.14;82.54;99407.22;5025685;28;20025;-84
2021/11/27 09:27:32;;;;;;;45.50;21.20;;;;;;;3.24;82.29;99405.59;5025781;28;20103;-83
2021/11/27 09:29:58;;;;;;;41.28;18.73;;;;;;;3.31;81.96;99400.97;5034144;28;20071;-83
2021/11/27 09:32:23;;;;;;;47.70;19.90;;;;;;;3.38;81.89;99397.38;5023675;28;20492;-84
2021/11/27 09:34:49;;;;;;;43.70;18.52;;;;;;;3.46;81.68;99402.34;5021764;28;20080;-83
2021/11/27 09:37:17;;;;;;;43.20;18.30;;;;;;;3.56;81.10;99398.03;5026476;28;20587;-83
2021/11/27 09:39:43;;;;;;;43.90;17.67;;;;;;;3.59;80.63;99404.69;5024601;28;20053;-83
2021/11/27 09:42:13;;;;;;;38.50;17.60;;;;;;;3.71;80.71;99402.81;5024272;28;20445;-83
2021/11/27 09:44:38;;;;;;;42.15;18.95;;;;;;;3.84;80.23;99404.41;5032692;28;20064;-83
2021/11/27 09:47:05;;;;;;;47.00;18.25;;;;;;;3.98;79.61;99404.91;5022869;28;20029;-83
2021/11/27 09:49:31;;;;;;;38.17;17.85;;;;;;;4.12;78.94;99400.91;5023719;28;20037;-83
2021/11/27 09:51:56;;;;;;;40.75;17.92;;;;;;;4.18;78.48;99402.63;5017409;28;20034;-83
2021/11/27 09:54:23;;;;;;;40.08;17.63;;;;;;;4.22;77.81;99401.09;5025299;28;20021;-83
2021/11/27 09:56:50;;;;;;;43.17;17.75;;;;;;;4.20;77.64;99401.34;5021435;28;20028;-83
2021/11/27 09:59:16;;;;;;;43.28;16.63;;;;;;;4.14;77.64;99401.50;5027775;28;20029;-84
2021/11/27 10:01:45;;;;;;;41.58;18.13;;;;;;;4.14;77.59;99397.00;5029673;28;20108;-84
2021/11/27 10:04:13;;;;;;;39.92;18.38;;;;;;;4.05;77.58;99395.78;5028306;28;20031;-83
2021/11/27 10:06:41;;;;;;;37.45;17.60;;;;;;;4.04;77.69;99391.50;5020731;28;20077;-83
2021/11/27 10:09:12;;;;;;;34.83;16.23;;;;;;;4.04;77.49;99390.72;5028714;28;20100;-83
2021/11/27 10:11:39;;;;;;;35.17;15.50;;;;;;;4.03;77.60;99381.94;5026769;28;20021;-84
2021/11/27 10:14:06;;;;;;;38.13;16.17;;;;;;;3.99;77.54;99383.47;5030472;28;20024;-83
2021/11/27 10:16:33;;;;;;;33.50;16.55;;;;;;;3.98;77.30;99379.22;5028743;28;20018;-83
2021/11/27 10:19:10;;;;;;;36.30;16.42;;;;;;;3.94;77.46;99376.22;5043391;28;20022;-83
2021/11/27 10:21:38;;;;;;;41.67;17.02;;;;;;;3.93;77.47;99385.22;5024880;28;20565;-83
2021/11/27 10:24:20;;;;;;;35.72;16.20;;;;;;;3.85;77.48;99382.16;5028219;28;20374;-84
2021/11/27 10:26:46;;;;;;;38.53;17.45;;;;;;;3.90;77.40;99382.25;5026584;28;20032;-83
2021/11/27 10:29:21;;;;;;;41.25;18.70;;;;;;;3.90;77.74;99383.03;5024919;28;20025;-85
2021/11/27 10:31:49;;;;;;;35.70;17.02;;;;;;;3.94;77.25;99373.56;5025958;28;20424;-83
2021/11/27 10:34:20;;;;;;;36.53;17.10;;;;;;;4.05;77.14;99379.88;5025113;28;20030;-83
2021/11/27 10:36:46;;;;;;;56.63;26.38;;;;;;;4.07;77.00;99371.66;5019095;28;20022;-83
2021/11/27 10:39:12;;;;;;;83.45;38.28;;;;;;;4.07;77.09;99372.47;5024169;28;20030;-83
2021/11/27 10:41:55;;;;;;;91.55;39.45;;;;;;;3.96;76.84;99376.00;5027850;28;20457;-83
2021/11/27 10:44:28;;;;;;;41.20;18.85;;;;;;;3.98;77.21;99367.81;5029047;28;20033;-83
2021/11/27 10:47:14;;;;;;;39.65;18.60;;;;;;;3.97;77.10;99376.81;5025383;28;20659;-83
2021/11/27 10:49:40;;;;;;;39.22;17.38;;;;;;;3.94;77.24;99373.56;5025051;28;20037;-83
2021/11/27 10:52:11;;;;;;;42.97;18.83;;;;;;;3.99;77.25;99374.72;5027798;28;20022;-83
2021/11/27 10:54:43;;;;;;;43.35;18.65;;;;;;;3.95;77.27;99374.41;5025988;28;20029;-83
2021/11/27 10:57:43;;;;;;;38.83;18.17;;;;;;;3.94;77.24;99376.22;5031808;23;20056;-52
2021/11/27 11:00:31;;;;;;;37.63;18.75;;;;;;;3.88;77.20;99379.81;5024283;23;21348;-55
2021/11/27 11:02:57;;;;;;;40.03;17.42;;;;;;;3.88;77.46;99373.72;5022892;28;20044;-55
2021/11/27 11:05:37;;;;;;;43.72;17.33;;;;;;;3.93;77.64;99374.63;5025795;28;20474;-53
2021/11/27 11:08:04;;;;;;;36.17;16.77;;;;;;;4.00;77.36;99376.34;5017538;28;20402;-53
2021/11/27 11:10:33;;;;;;;41.33;17.98;;;;;;;4.05;77.22;99371.13;5016218;28;20118;-55
2021/11/27 11:13:11;;;;;;;39.28;17.23;;;;;;;4.08;77.27;99373.28;5001073;28;20025;-55
2021/11/27 11:15:42;;;;;;;36.15;16.33;;;;;;;4.20;77.19;99369.53;5002383;28;20434;-54
2021/11/27 11:18:08;;;;;;;36.40;16.65;;;;;;;4.28;77.12;99370.97;5001411;28;20034;-53
2021/11/27 11:20:34;;;;;;;40.20;17.92;;;;;;;4.35;76.58;99366.31;4999680;28;20112;-54
2021/11/27 11:23:05;;;;;;;38.83;16.75;;;;;;;4.36;76.30;99370.59;5007887;28;20052;-53
2021/11/27 11:25:33;;;;;;;36.25;16.90;;;;;;;4.45;76.51;99363.00;5005988;28;20036;-55